DEUFD EDLW-EDLW

Flight info

Callsign DEUFD
Flight time 0h 3m
Altitude 2000
Route VFR
Aircraft SR22/L-V/N

Departure

Time 2026-04-29 16:45
Airport Dortmund Airport (EDLW)

Arrival

Time 2026-04-29 16:48
Airport Dortmund Airport (EDLW)
Time Latitude Longitude Altitude Speed Heading
2026-04-29 16:36 51.51186 7.60395 452 ft 0 kts 196°
2026-04-29 16:39 51.51186 7.60387 452 ft 4 kts 352°
2026-04-29 16:39 51.51204 7.60324 450 ft 11 kts 242°
2026-04-29 16:39 51.51165 7.60222 451 ft 13 kts 243°
2026-04-29 16:40 51.51201 7.60181 448 ft 12 kts 54°
2026-04-29 16:40 51.51250 7.60318 447 ft 15 kts 59°
2026-04-29 16:40 51.51309 7.60473 442 ft 16 kts 64°
2026-04-29 16:40 51.51366 7.60636 440 ft 14 kts 60°
2026-04-29 16:41 51.51408 7.60760 438 ft 15 kts 63°
2026-04-29 16:41 51.51476 7.60947 432 ft 18 kts 62°
2026-04-29 16:41 51.51557 7.61044 426 ft 11 kts 318°
2026-04-29 16:41 51.51559 7.60923 426 ft 20 kts 263°
2026-04-29 16:42 51.51529 7.60722 428 ft 11 kts 255°
2026-04-29 16:42 51.51527 7.60680 428 ft 0 kts 285°
2026-04-29 16:43 51.51582 7.60609 422 ft 18 kts 351°
2026-04-29 16:43 51.51633 7.60663 417 ft 0 kts 57°
2026-04-29 16:44 51.51677 7.60782 416 ft 37 kts 63°
2026-04-29 16:44 51.51880 7.61368 447 ft 78 kts 57°
2026-04-29 16:45 51.52148 7.62163 730 ft 82 kts 62°
2026-04-29 16:45 51.52467 7.63068 828 ft 106 kts 63°
2026-04-29 16:45 51.53035 7.63771 1018 ft 123 kts 355°
2026-04-29 16:45 51.53870 7.63082 1094 ft 144 kts 338°
2026-04-29 16:46 51.54434 7.61810 1158 ft 169 kts 256°
2026-04-29 16:46 51.53943 7.60047 1217 ft 177 kts 245°
2026-04-29 16:46 51.53385 7.58261 1297 ft 182 kts 242°
2026-04-29 16:46 51.52762 7.56476 1260 ft 182 kts 238°
2026-04-29 16:47 51.51849 7.55540 1352 ft 145 kts 162°
2026-04-29 16:47 51.51034 7.56226 1185 ft 125 kts 142°
2026-04-29 16:47 51.50724 7.57120 1165 ft 88 kts 88°
2026-04-29 16:47 51.50800 7.58108 903 ft 96 kts 74°
2026-04-29 16:48 51.51045 7.58969 714 ft 75 kts 55°
2026-04-29 16:48 51.51289 7.59676 564 ft 69 kts 65°
2026-04-29 16:48 51.51529 7.60356 442 ft 70 kts 59°
2026-04-29 16:48 51.51730 7.60935 413 ft 49 kts 60°
2026-04-29 16:49 51.51942 7.61548 447 ft 79 kts 60°
2026-04-29 16:49 51.52211 7.62298 795 ft 74 kts 58°
2026-04-29 16:49 51.52718 7.62559 862 ft 113 kts 338°
2026-04-29 16:49 51.53507 7.61907 895 ft 137 kts 338°
2026-04-29 16:50 51.54384 7.61127 964 ft 154 kts 321°
2026-04-29 16:50 51.54226 7.59438 1089 ft 166 kts 246°
2026-04-29 16:50 51.53651 7.57843 1250 ft 170 kts 237°
2026-04-29 16:50 51.52993 7.56198 1343 ft 178 kts 236°
2026-04-29 16:51 51.52175 7.54889 1305 ft 155 kts 188°
2026-04-29 16:51 51.51227 7.55150 1211 ft 134 kts 156°
2026-04-29 16:51 51.50456 7.55744 1199 ft 97 kts 114°
2026-04-29 16:51 51.50482 7.56700 1093 ft 89 kts 83°
2026-04-29 16:52 51.50622 7.57695 956 ft 95 kts 67°
2026-04-29 16:52 51.50922 7.58610 783 ft 92 kts 58°
2026-04-29 16:52 51.51221 7.59473 600 ft 86 kts 60°
2026-04-29 16:52 51.51496 7.60256 466 ft 75 kts 62°
2026-04-29 16:53 51.51714 7.60875 414 ft 46 kts 60°
2026-04-29 16:53 51.51884 7.61371 429 ft 70 kts 62°
2026-04-29 16:53 51.52132 7.62085 638 ft 84 kts 50°
2026-04-29 16:53 51.52769 7.61987 714 ft 117 kts 339°
2026-04-29 16:54 51.53534 7.61281 815 ft 137 kts 334°
2026-04-29 16:54 51.54316 7.60287 894 ft 158 kts 292°
2026-04-29 16:54 51.54061 7.58555 953 ft 172 kts 246°
2026-04-29 16:54 51.53509 7.56794 981 ft 182 kts 242°
2026-04-29 16:55 51.52835 7.55075 1206 ft 175 kts 232°
2026-04-29 16:55 51.52107 7.53532 1362 ft 175 kts 216°
2026-04-29 16:55 51.51069 7.53522 1493 ft 154 kts 153°
2026-04-29 16:55 51.50101 7.54254 1585 ft 150 kts 127°
2026-04-29 16:56 51.50058 7.55833 1501 ft 154 kts 72°
2026-04-29 16:56 51.50493 7.57485 1196 ft 168 kts 63°
2026-04-29 16:56 51.51018 7.58888 857 ft 130 kts 59°
2026-04-29 16:56 51.51416 7.60015 567 ft 104 kts 65°
2026-04-29 16:57 51.51713 7.60886 418 ft 72 kts 61°
2026-04-29 16:57 51.51920 7.61467 405 ft 49 kts 61°
2026-04-29 16:57 51.52135 7.62112 443 ft 82 kts 59°
2026-04-29 16:57 51.52499 7.62985 554 ft 106 kts 37°
2026-04-29 16:58 51.53239 7.63084 782 ft 121 kts 351°
2026-04-29 16:58 51.54129 7.62690 844 ft 140 kts 353°